sensor_id;sensor_type;location;lat;lon;timestamp;pressure;altitude;pressure_sealevel;temperature;humidity
24160;BME280;62385;41.594;23.808;2023-11-19T00:00:18;95132.88;;;4.93;54.23
24160;BME280;62385;41.594;23.808;2023-11-19T00:02:44;95105.19;;;4.72;54.76
24160;BME280;62385;41.594;23.808;2023-11-19T00:05:10;95106.56;;;4.76;54.23
24160;BME280;62385;41.594;23.808;2023-11-19T00:07:39;95108.25;;;4.94;53.87
24160;BME280;62385;41.594;23.808;2023-11-19T00:10:12;95130.81;;;4.97;54.13
24160;BME280;62385;41.594;23.808;2023-11-19T00:12:41;95136.88;;;4.97;54.00
24160;BME280;62385;41.594;23.808;2023-11-19T00:15:07;95134.91;;;5.09;54.51
24160;BME280;62385;41.594;23.808;2023-11-19T00:17:40;95142.22;;;4.88;54.11
24160;BME280;62385;41.594;23.808;2023-11-19T00:20:16;95142.03;;;4.89;54.39
24160;BME280;62385;41.594;23.808;2023-11-19T00:22:43;95123.41;;;4.83;54.35
24160;BME280;62385;41.594;23.808;2023-11-19T00:25:09;95127.50;;;4.95;54.25
24160;BME280;62385;41.594;23.808;2023-11-19T00:27:35;95117.00;;;4.85;54.29
24160;BME280;62385;41.594;23.808;2023-11-19T00:30:01;95122.94;;;4.97;54.54
24160;BME280;62385;41.594;23.808;2023-11-19T00:32:27;95104.91;;;4.65;54.52
24160;BME280;62385;41.594;23.808;2023-11-19T00:34:53;95122.56;;;4.82;55.36
24160;BME280;62385;41.594;23.808;2023-11-19T00:37:18;95134.38;;;4.69;55.46
24160;BME280;62385;41.594;23.808;2023-11-19T00:39:44;95144.72;;;4.80;55.24
24160;BME280;62385;41.594;23.808;2023-11-19T00:42:11;95153.25;;;4.91;53.79
24160;BME280;62385;41.594;23.808;2023-11-19T00:44:37;95148.53;;;4.95;53.47
24160;BME280;62385;41.594;23.808;2023-11-19T00:47:03;95136.13;;;4.87;53.11
24160;BME280;62385;41.594;23.808;2023-11-19T00:49:31;95150.34;;;4.94;54.00
24160;BME280;62385;41.594;23.808;2023-11-19T00:52:00;95120.03;;;4.90;52.83
24160;BME280;62385;41.594;23.808;2023-11-19T00:54:27;95159.56;;;5.08;52.67
24160;BME280;62385;41.594;23.808;2023-11-19T00:56:53;95149.91;;;4.99;54.05
24160;BME280;62385;41.594;23.808;2023-11-19T00:59:19;95116.91;;;4.77;53.90
24160;BME280;62385;41.594;23.808;2023-11-19T01:01:45;95153.91;;;5.03;53.54
24160;BME280;62385;41.594;23.808;2023-11-19T01:04:11;95141.50;;;4.86;54.44
24160;BME280;62385;41.594;23.808;2023-11-19T01:06:36;95175.56;;;4.12;56.95
24160;BME280;62385;41.594;23.808;2023-11-19T01:09:02;95187.28;;;3.50;60.16
24160;BME280;62385;41.594;23.808;2023-11-19T01:11:28;95153.31;;;3.78;59.27
24160;BME280;62385;41.594;23.808;2023-11-19T01:13:53;95180.66;;;3.46;59.81
24160;BME280;62385;41.594;23.808;2023-11-19T01:16:19;95155.66;;;3.90;57.63
24160;BME280;62385;41.594;23.808;2023-11-19T01:18:47;95173.50;;;4.15;57.67
24160;BME280;62385;41.594;23.808;2023-11-19T01:21:14;95193.81;;;4.42;56.95
24160;BME280;62385;41.594;23.808;2023-11-19T01:23:43;95194.66;;;4.33;57.97
24160;BME280;62385;41.594;23.808;2023-11-19T01:26:10;95192.97;;;4.32;58.03
24160;BME280;62385;41.594;23.808;2023-11-19T01:29:38;95202.25;;;4.07;58.06
24160;BME280;62385;41.594;23.808;2023-11-19T01:32:25;95190.91;;;4.07;57.54
24160;BME280;62385;41.594;23.808;2023-11-19T01:34:51;95217.88;;;4.28;57.32
24160;BME280;62385;41.594;23.808;2023-11-19T01:37:26;95211.22;;;4.43;57.54
24160;BME280;62385;41.594;23.808;2023-11-19T01:43:12;95175.28;;;4.15;58.17
24160;BME280;62385;41.594;23.808;2023-11-19T01:49:32;95206.53;;;4.37;58.10
24160;BME280;62385;41.594;23.808;2023-11-19T01:51:58;95175.78;;;3.32;60.31
24160;BME280;62385;41.594;23.808;2023-11-19T01:54:25;95150.19;;;3.15;59.97
24160;BME280;62385;41.594;23.808;2023-11-19T01:56:52;95221.09;;;3.44;61.00
24160;BME280;62385;41.594;23.808;2023-11-19T01:59:23;95171.91;;;3.36;60.91
24160;BME280;62385;41.594;23.808;2023-11-19T02:01:54;95231.56;;;3.34;61.03
24160;BME280;62385;41.594;23.808;2023-11-19T02:04:21;95218.91;;;3.39;60.78
24160;BME280;62385;41.594;23.808;2023-11-19T02:06:48;95223.63;;;3.64;60.85
24160;BME280;62385;41.594;23.808;2023-11-19T02:09:15;95209.19;;;3.40;60.87
24160;BME280;62385;41.594;23.808;2023-11-19T02:11:45;95208.97;;;3.52;61.19
24160;BME280;62385;41.594;23.808;2023-11-19T02:14:15;95208.25;;;3.41;61.35
24160;BME280;62385;41.594;23.808;2023-11-19T02:16:41;95218.03;;;3.29;62.04
24160;BME280;62385;41.594;23.808;2023-11-19T02:19:06;95216.44;;;3.47;60.80
24160;BME280;62385;41.594;23.808;2023-11-19T02:21:33;95222.31;;;3.40;61.32
24160;BME280;62385;41.594;23.808;2023-11-19T02:23:59;95223.53;;;3.26;61.50
24160;BME280;62385;41.594;23.808;2023-11-19T02:26:32;95166.06;;;3.23;61.29
24160;BME280;62385;41.594;23.808;2023-11-19T02:28:58;95214.44;;;3.40;61.28
24160;BME280;62385;41.594;23.808;2023-11-19T02:31:24;95187.72;;;3.06;61.95
24160;BME280;62385;41.594;23.808;2023-11-19T02:33:50;95215.41;;;3.29;62.07
24160;BME280;62385;41.594;23.808;2023-11-19T02:36:15;95214.72;;;3.37;61.90
24160;BME280;62385;41.594;23.808;2023-11-19T02:38:42;95221.06;;;3.34;62.39
24160;BME280;62385;41.594;23.808;2023-11-19T02:41:08;95182.69;;;2.93;62.40
24160;BME280;62385;41.594;23.808;2023-11-19T02:43:37;95234.19;;;3.34;61.80
24160;BME280;62385;41.594;23.808;2023-11-19T02:46:03;95240.91;;;3.17;62.55
24160;BME280;62385;41.594;23.808;2023-11-19T02:48:35;95211.97;;;3.38;62.17
24160;BME280;62385;41.594;23.808;2023-11-19T02:51:01;95218.56;;;3.72;61.64
24160;BME280;62385;41.594;23.808;2023-11-19T02:53:31;95213.56;;;3.20;62.45
24160;BME280;62385;41.594;23.808;2023-11-19T02:55:57;95182.09;;;3.10;62.82
24160;BME280;62385;41.594;23.808;2023-11-19T02:58:31;95205.50;;;3.42;62.27
24160;BME280;62385;41.594;23.808;2023-11-19T03:00:57;95204.34;;;2.86;63.72
24160;BME280;62385;41.594;23.808;2023-11-19T03:03:25;95191.28;;;2.74;64.19
24160;BME280;62385;41.594;23.808;2023-11-19T03:06:07;95221.63;;;2.67;64.86
24160;BME280;62385;41.594;23.808;2023-11-19T03:08:36;95214.56;;;2.98;63.91
24160;BME280;62385;41.594;23.808;2023-11-19T03:11:02;95231.56;;;2.73;64.58
24160;BME280;62385;41.594;23.808;2023-11-19T03:13:30;95213.88;;;2.66;64.65
24160;BME280;62385;41.594;23.808;2023-11-19T03:15:56;95232.38;;;2.64;64.90
24160;BME280;62385;41.594;23.808;2023-11-19T03:18:21;95204.22;;;2.66;64.71
24160;BME280;62385;41.594;23.808;2023-11-19T03:20:47;95165.97;;;2.33;65.27
24160;BME280;62385;41.594;23.808;2023-11-19T03:23:13;95224.25;;;2.26;66.62
24160;BME280;62385;41.594;23.808;2023-11-19T03:25:39;95215.28;;;2.08;67.16
24160;BME280;62385;41.594;23.808;2023-11-19T03:32:02;95215.72;;;2.13;66.92
24160;BME280;62385;41.594;23.808;2023-11-19T03:34:43;95231.09;;;2.38;66.96
24160;BME280;62385;41.594;23.808;2023-11-19T03:37:10;95231.84;;;2.29;67.30
24160;BME280;62385;41.594;23.808;2023-11-19T03:39:35;95225.72;;;1.87;68.56
24160;BME280;62385;41.594;23.808;2023-11-19T03:42:01;95241.03;;;1.92;68.27
24160;BME280;62385;41.594;23.808;2023-11-19T03:44:27;95237.81;;;1.99;68.05
24160;BME280;62385;41.594;23.808;2023-11-19T03:57:41;95249.03;;;2.22;68.91
24160;BME280;62385;41.594;23.808;2023-11-19T04:00:07;95251.44;;;1.82;69.59
24160;BME280;62385;41.594;23.808;2023-11-19T04:02:38;95259.66;;;2.09;69.87
24160;BME280;62385;41.594;23.808;2023-11-19T04:05:04;95220.84;;;1.82;69.44
24160;BME280;62385;41.594;23.808;2023-11-19T04:07:30;95263.03;;;2.00;69.69
24160;BME280;62385;41.594;23.808;2023-11-19T04:09:57;95263.22;;;2.19;69.55
24160;BME280;62385;41.594;23.808;2023-11-19T04:12:22;95248.16;;;2.01;69.38
24160;BME280;62385;41.594;23.808;2023-11-19T04:14:48;95255.91;;;2.02;70.13
24160;BME280;62385;41.594;23.808;2023-11-19T04:17:14;95255.63;;;2.05;70.96
24160;BME280;62385;41.594;23.808;2023-11-19T04:19:39;95248.91;;;2.23;67.96
24160;BME280;62385;41.594;23.808;2023-11-19T04:22:07;95250.97;;;2.09;69.27
24160;BME280;62385;41.594;23.808;2023-11-19T04:24:34;95260.75;;;2.07;70.24
24160;BME280;62385;41.594;23.808;2023-11-19T04:27:00;95229.22;;;1.76;69.86
24160;BME280;62385;41.594;23.808;2023-11-19T04:29:26;95250.56;;;1.93;69.67
24160;BME280;62385;41.594;23.808;2023-11-19T04:31:52;95278.00;;;2.09;70.48
24160;BME280;62385;41.594;23.808;2023-11-19T04:34:18;95279.19;;;1.73;69.24
24160;BME280;62385;41.594;23.808;2023-11-19T04:36:50;95250.88;;;0.91;71.61
24160;BME280;62385;41.594;23.808;2023-11-19T04:39:16;95280.41;;;1.25;71.59
24160;BME280;62385;41.594;23.808;2023-11-19T04:44:15;95245.00;;;0.87;71.83
24160;BME280;62385;41.594;23.808;2023-11-19T04:46:41;95242.88;;;0.92;71.59
24160;BME280;62385;41.594;23.808;2023-11-19T04:49:09;95248.72;;;1.07;71.37
24160;BME280;62385;41.594;23.808;2023-11-19T04:51:42;95244.09;;;1.11;70.48
24160;BME280;62385;41.594;23.808;2023-11-19T04:54:11;95283.72;;;1.49;71.08
24160;BME280;62385;41.594;23.808;2023-11-19T05:01:12;95304.41;;;1.41;70.37
24160;BME280;62385;41.594;23.808;2023-11-19T05:18:58;95316.91;;;1.37;71.08
24160;BME280;62385;41.594;23.808;2023-11-19T05:29:15;95324.41;;;1.53;72.12
24160;BME280;62385;41.594;23.808;2023-11-19T05:32:20;95325.84;;;1.57;71.96
24160;BME280;62385;41.594;23.808;2023-11-19T05:34:55;95322.72;;;1.41;72.03
24160;BME280;62385;41.594;23.808;2023-11-19T05:37:22;95318.69;;;1.48;71.20
24160;BME280;62385;41.594;23.808;2023-11-19T05:39:54;95329.75;;;1.41;71.81
24160;BME280;62385;41.594;23.808;2023-11-19T05:46:39;95333.41;;;2.25;67.79
24160;BME280;62385;41.594;23.808;2023-11-19T05:49:15;95338.63;;;2.25;68.02
24160;BME280;62385;41.594;23.808;2023-11-19T05:51:44;95339.53;;;2.15;68.42
24160;BME280;62385;41.594;23.808;2023-11-19T05:54:13;95330.63;;;2.06;68.96
24160;BME280;62385;41.594;23.808;2023-11-19T05:56:39;95328.22;;;2.14;69.27
24160;BME280;62385;41.594;23.808;2023-11-19T05:59:04;95331.78;;;2.45;67.83
24160;BME280;62385;41.594;23.808;2023-11-19T06:01:35;95304.44;;;2.59;67.49
24160;BME280;62385;41.594;23.808;2023-11-19T06:04:01;95323.75;;;2.78;66.38
24160;BME280;62385;41.594;23.808;2023-11-19T06:06:28;95304.25;;;2.92;64.85
24160;BME280;62385;41.594;23.808;2023-11-19T06:08:54;95309.44;;;3.34;63.75
24160;BME280;62385;41.594;23.808;2023-11-19T06:11:20;95311.84;;;3.16;64.21
24160;BME280;62385;41.594;23.808;2023-11-19T06:13:46;95317.78;;;3.48;63.33
24160;BME280;62385;41.594;23.808;2023-11-19T06:16:16;95303.25;;;3.75;63.61
24160;BME280;62385;41.594;23.808;2023-11-19T06:18:41;95322.06;;;3.49;65.40
24160;BME280;62385;41.594;23.808;2023-11-19T06:21:09;95271.28;;;2.90;66.98
24160;BME280;62385;41.594;23.808;2023-11-19T06:23:35;95337.28;;;3.25;67.19
24160;BME280;62385;41.594;23.808;2023-11-19T06:26:00;95305.72;;;3.06;66.91
24160;BME280;62385;41.594;23.808;2023-11-19T06:28:26;95323.56;;;3.42;66.31
24160;BME280;62385;41.594;23.808;2023-11-19T06:30:52;95319.44;;;3.49;67.33
24160;BME280;62385;41.594;23.808;2023-11-19T06:33:17;95326.81;;;3.55;66.89
24160;BME280;62385;41.594;23.808;2023-11-19T06:35:43;95311.13;;;3.44;66.89
24160;BME280;62385;41.594;23.808;2023-11-19T06:38:09;95345.59;;;3.60;67.55
24160;BME280;62385;41.594;23.808;2023-11-19T06:40:35;95357.31;;;3.56;68.40
24160;BME280;62385;41.594;23.808;2023-11-19T06:43:01;95362.94;;;3.42;69.81
24160;BME280;62385;41.594;23.808;2023-11-19T06:45:29;95364.22;;;3.57;68.67
24160;BME280;62385;41.594;23.808;2023-11-19T06:48:04;95366.75;;;3.59;68.25
24160;BME280;62385;41.594;23.808;2023-11-19T06:50:31;95363.66;;;3.84;68.13
24160;BME280;62385;41.594;23.808;2023-11-19T06:52:57;95375.72;;;3.96;67.01
24160;BME280;62385;41.594;23.808;2023-11-19T06:55:23;95372.19;;;4.16;65.90
24160;BME280;62385;41.594;23.808;2023-11-19T06:57:52;95341.06;;;4.12;65.95
24160;BME280;62385;41.594;23.808;2023-11-19T07:00:21;95355.78;;;4.34;64.98
24160;BME280;62385;41.594;23.808;2023-11-19T07:02:47;95366.44;;;4.42;65.37
24160;BME280;62385;41.594;23.808;2023-11-19T07:05:14;95300.97;;;4.10;65.04
24160;BME280;62385;41.594;23.808;2023-11-19T07:08:14;95368.25;;;4.51;65.11
24160;BME280;62385;41.594;23.808;2023-11-19T07:10:52;95367.56;;;4.78;64.08
24160;BME280;62385;41.594;23.808;2023-11-19T07:17:21;95365.31;;;5.02;58.99
24160;BME280;62385;41.594;23.808;2023-11-19T07:19:49;95373.50;;;5.08;58.02
24160;BME280;62385;41.594;23.808;2023-11-19T07:22:15;95379.84;;;5.16;58.25
24160;BME280;62385;41.594;23.808;2023-11-19T07:24:44;95384.69;;;5.20;57.67
24160;BME280;62385;41.594;23.808;2023-11-19T07:27:10;95395.91;;;5.22;56.89
24160;BME280;62385;41.594;23.808;2023-11-19T07:29:35;95396.19;;;5.29;57.35
24160;BME280;62385;41.594;23.808;2023-11-19T07:35:57;95392.31;;;5.33;56.26
24160;BME280;62385;41.594;23.808;2023-11-19T07:38:26;95409.06;;;5.41;56.51
24160;BME280;62385;41.594;23.808;2023-11-19T07:40:52;95401.00;;;5.43;56.42
24160;BME280;62385;41.594;23.808;2023-11-19T07:43:18;95418.19;;;5.37;56.16
24160;BME280;62385;41.594;23.808;2023-11-19T07:45:43;95395.06;;;5.31;56.33
24160;BME280;62385;41.594;23.808;2023-11-19T07:48:10;95409.59;;;5.54;55.93
24160;BME280;62385;41.594;23.808;2023-11-19T07:50:38;95406.28;;;5.33;54.46
24160;BME280;62385;41.594;23.808;2023-11-19T07:53:07;95404.69;;;5.69;55.40
24160;BME280;62385;41.594;23.808;2023-11-19T07:55:48;95392.78;;;5.55;55.69
24160;BME280;62385;41.594;23.808;2023-11-19T08:06:48;95405.06;;;5.84;54.63
24160;BME280;62385;41.594;23.808;2023-11-19T08:13:29;95402.47;;;6.11;54.50
24160;BME280;62385;41.594;23.808;2023-11-19T08:16:00;95404.25;;;6.20;54.92
24160;BME280;62385;41.594;23.808;2023-11-19T08:21:54;95418.44;;;6.10;53.79
24160;BME280;62385;41.594;23.808;2023-11-19T08:24:34;95423.28;;;6.41;53.34
24160;BME280;62385;41.594;23.808;2023-11-19T08:27:59;95424.69;;;6.09;52.56
24160;BME280;62385;41.594;23.808;2023-11-19T08:46:26;95413.53;;;6.69;52.61
24160;BME280;62385;41.594;23.808;2023-11-19T08:49:06;95386.88;;;6.27;51.53
24160;BME280;62385;41.594;23.808;2023-11-19T08:56:28;95427.47;;;6.79;52.59
24160;BME280;62385;41.594;23.808;2023-11-19T08:58:58;95414.00;;;6.82;52.00
24160;BME280;62385;41.594;23.808;2023-11-19T09:01:24;95405.41;;;7.16;51.91
24160;BME280;62385;41.594;23.808;2023-11-19T09:03:50;95414.22;;;6.89;52.25
24160;BME280;62385;41.594;23.808;2023-11-19T09:06:15;95418.13;;;6.67;50.69
24160;BME280;62385;41.594;23.808;2023-11-19T09:08:44;95413.31;;;6.80;51.40
24160;BME280;62385;41.594;23.808;2023-11-19T09:11:10;95407.38;;;6.96;51.50
24160;BME280;62385;41.594;23.808;2023-11-19T09:13:37;95409.72;;;6.81;51.94
24160;BME280;62385;41.594;23.808;2023-11-19T09:16:03;95398.41;;;7.07;51.45
24160;BME280;62385;41.594;23.808;2023-11-19T09:18:32;95407.81;;;7.27;51.48
24160;BME280;62385;41.594;23.808;2023-11-19T09:20:58;95389.91;;;6.95;51.11
24160;BME280;62385;41.594;23.808;2023-11-19T09:23:24;95398.78;;;7.12;50.63
24160;BME280;62385;41.594;23.808;2023-11-19T09:25:54;95399.75;;;6.93;50.80
24160;BME280;62385;41.594;23.808;2023-11-19T09:28:20;95396.22;;;7.20;50.52
24160;BME280;62385;41.594;23.808;2023-11-19T09:30:46;95408.06;;;6.98;51.07
24160;BME280;62385;41.594;23.808;2023-11-19T09:33:11;95399.00;;;7.18;51.08
24160;BME280;62385;41.594;23.808;2023-11-19T09:35:40;95404.13;;;7.02;49.64
24160;BME280;62385;41.594;23.808;2023-11-19T09:38:11;95394.16;;;7.31;50.06
24160;BME280;62385;41.594;23.808;2023-11-19T09:40:38;95380.13;;;7.13;49.99
24160;BME280;62385;41.594;23.808;2023-11-19T09:43:04;95383.66;;;7.39;50.64
24160;BME280;62385;41.594;23.808;2023-11-19T09:45:32;95340.41;;;7.15;50.05
24160;BME280;62385;41.594;23.808;2023-11-19T09:48:02;95391.50;;;7.49;49.95
24160;BME280;62385;41.594;23.808;2023-11-19T09:50:28;95388.25;;;7.37;49.96
24160;BME280;62385;41.594;23.808;2023-11-19T09:52:54;95354.69;;;7.30;50.00
24160;BME280;62385;41.594;23.808;2023-11-19T09:55:20;95317.53;;;7.23;49.71
24160;BME280;62385;41.594;23.808;2023-11-19T09:57:46;95387.84;;;7.50;49.85
24160;BME280;62385;41.594;23.808;2023-11-19T10:00:14;95403.59;;;7.60;49.67
24160;BME280;62385;41.594;23.808;2023-11-19T10:02:41;95387.63;;;7.61;49.90
24160;BME280;62385;41.594;23.808;2023-11-19T10:05:07;95406.19;;;7.52;49.65
24160;BME280;62385;41.594;23.808;2023-11-19T10:07:33;95387.66;;;7.69;49.54
24160;BME280;62385;41.594;23.808;2023-11-19T10:10:00;95357.41;;;7.64;49.40
24160;BME280;62385;41.594;23.808;2023-11-19T10:12:28;95389.56;;;7.85;49.32
24160;BME280;62385;41.594;23.808;2023-11-19T10:15:02;95317.22;;;7.52;49.76
24160;BME280;62385;41.594;23.808;2023-11-19T11:12:44;95299.34;;;9.04;47.01
24160;BME280;62385;41.594;23.808;2023-11-19T11:15:11;95293.69;;;9.32;49.08
24160;BME280;62385;41.594;23.808;2023-11-19T11:17:41;95287.72;;;9.38;47.40
24160;BME280;62385;41.594;23.808;2023-11-19T11:20:08;95293.38;;;9.18;47.49
24160;BME280;62385;41.594;23.808;2023-11-19T11:35:54;95271.50;;;9.33;46.88
24160;BME280;62385;41.594;23.808;2023-11-19T11:38:22;95279.09;;;9.52;47.56
24160;BME280;62385;41.594;23.808;2023-11-19T11:43:51;95262.88;;;9.39;46.50
24160;BME280;62385;41.594;23.808;2023-11-19T11:49:07;95254.91;;;9.47;44.80
24160;BME280;62385;41.594;23.808;2023-11-19T11:51:59;95248.69;;;9.70;45.51
24160;BME280;62385;41.594;23.808;2023-11-19T11:54:26;95257.53;;;9.55;45.29
24160;BME280;62385;41.594;23.808;2023-11-19T11:57:11;95236.66;;;9.60;44.89
24160;BME280;62385;41.594;23.808;2023-11-19T12:02:08;95266.28;;;9.71;47.18
24160;BME280;62385;41.594;23.808;2023-11-19T12:04:35;95241.88;;;9.84;46.48
24160;BME280;62385;41.594;23.808;2023-11-19T12:07:18;95243.78;;;9.98;46.17
24160;BME280;62385;41.594;23.808;2023-11-19T12:10:08;95244.03;;;9.81;45.20
24160;BME280;62385;41.594;23.808;2023-11-19T12:12:34;95238.66;;;9.97;46.03
24160;BME280;62385;41.594;23.808;2023-11-19T12:15:08;95238.66;;;9.97;47.19
24160;BME280;62385;41.594;23.808;2023-11-19T12:17:38;95236.44;;;10.16;46.03
24160;BME280;62385;41.594;23.808;2023-11-19T12:20:08;95255.44;;;10.28;46.63
24160;BME280;62385;41.594;23.808;2023-11-19T12:22:38;95216.78;;;9.95;45.37
24160;BME280;62385;41.594;23.808;2023-11-19T12:25:07;95247.38;;;10.13;45.55
24160;BME280;62385;41.594;23.808;2023-11-19T12:27:35;95244.59;;;9.99;46.36
24160;BME280;62385;41.594;23.808;2023-11-19T12:30:04;95239.09;;;10.08;44.81
24160;BME280;62385;41.594;23.808;2023-11-19T12:32:43;95246.06;;;10.17;44.74
24160;BME280;62385;41.594;23.808;2023-11-19T12:35:10;95225.97;;;9.84;44.21
24160;BME280;62385;41.594;23.808;2023-11-19T12:37:49;95215.63;;;9.97;45.83
24160;BME280;62385;41.594;23.808;2023-11-19T12:40:24;95245.03;;;10.10;46.83
24160;BME280;62385;41.594;23.808;2023-11-19T12:42:52;95244.38;;;10.16;46.66
24160;BME280;62385;41.594;23.808;2023-11-19T12:45:18;95236.50;;;10.00;48.06
24160;BME280;62385;41.594;23.808;2023-11-19T12:47:46;95226.59;;;10.25;46.63
24160;BME280;62385;41.594;23.808;2023-11-19T12:50:13;95242.41;;;10.18;46.63
24160;BME280;62385;41.594;23.808;2023-11-19T12:52:39;95227.63;;;9.85;47.49
24160;BME280;62385;41.594;23.808;2023-11-19T12:55:32;95232.81;;;10.09;47.59
24160;BME280;62385;41.594;23.808;2023-11-19T12:57:58;95218.91;;;9.99;47.18
24160;BME280;62385;41.594;23.808;2023-11-19T13:00:26;95226.00;;;10.07;49.05
24160;BME280;62385;41.594;23.808;2023-11-19T13:03:00;95229.63;;;10.22;45.53
24160;BME280;62385;41.594;23.808;2023-11-19T13:05:31;95238.75;;;10.11;45.10
24160;BME280;62385;41.594;23.808;2023-11-19T13:08:06;95240.50;;;9.96;44.24
24160;BME280;62385;41.594;23.808;2023-11-19T13:10:54;95238.31;;;10.00;43.70
24160;BME280;62385;41.594;23.808;2023-11-19T13:13:19;95234.97;;;10.06;42.36
24160;BME280;62385;41.594;23.808;2023-11-19T13:15:46;95231.44;;;10.13;43.22
24160;BME280;62385;41.594;23.808;2023-11-19T13:18:12;95233.16;;;9.98;43.43
24160;BME280;62385;41.594;23.808;2023-11-19T13:20:38;95190.66;;;9.84;43.07
24160;BME280;62385;41.594;23.808;2023-11-19T13:23:05;95203.88;;;9.92;42.50
24160;BME280;62385;41.594;23.808;2023-11-19T13:25:32;95138.59;;;9.60;42.64
24160;BME280;62385;41.594;23.808;2023-11-19T13:27:58;95144.72;;;9.60;41.76
24160;BME280;62385;41.594;23.808;2023-11-19T13:30:25;95205.13;;;10.04;43.42
24160;BME280;62385;41.594;23.808;2023-11-19T13:32:52;95164.94;;;9.92;42.96
24160;BME280;62385;41.594;23.808;2023-11-19T13:35:18;95221.13;;;9.88;42.58
24160;BME280;62385;41.594;23.808;2023-11-19T13:37:44;95224.31;;;9.83;42.27
24160;BME280;62385;41.594;23.808;2023-11-19T13:40:18;95229.25;;;9.86;42.11
24160;BME280;62385;41.594;23.808;2023-11-19T13:42:45;95220.84;;;9.74;42.54
24160;BME280;62385;41.594;23.808;2023-11-19T13:45:14;95214.78;;;9.97;43.16
24160;BME280;62385;41.594;23.808;2023-11-19T13:47:41;95201.59;;;9.89;43.28
24160;BME280;62385;41.594;23.808;2023-11-19T13:50:13;95201.97;;;9.69;43.45
24160;BME280;62385;41.594;23.808;2023-11-19T13:52:40;95213.41;;;9.70;42.94
24160;BME280;62385;41.594;23.808;2023-11-19T13:55:08;95185.84;;;9.56;41.97
24160;BME280;62385;41.594;23.808;2023-11-19T13:57:41;95202.72;;;9.55;43.21
24160;BME280;62385;41.594;23.808;2023-11-19T14:00:09;95202.34;;;9.66;42.89
24160;BME280;62385;41.594;23.808;2023-11-19T14:02:47;95200.41;;;9.52;43.81
24160;BME280;62385;41.594;23.808;2023-11-19T14:05:13;95203.91;;;9.45;44.11
24160;BME280;62385;41.594;23.808;2023-11-19T14:07:41;95229.53;;;9.60;43.09
24160;BME280;62385;41.594;23.808;2023-11-19T14:10:07;95194.03;;;9.31;44.05
24160;BME280;62385;41.594;23.808;2023-11-19T14:12:39;95230.13;;;9.32;44.35
24160;BME280;62385;41.594;23.808;2023-11-19T14:15:06;95226.47;;;9.33;44.06
24160;BME280;62385;41.594;23.808;2023-11-19T14:17:33;95238.06;;;9.32;44.10
24160;BME280;62385;41.594;23.808;2023-11-19T14:20:11;95248.34;;;9.18;43.67
24160;BME280;62385;41.594;23.808;2023-11-19T15:08:38;95335.78;;;7.17;54.76
24160;BME280;62385;41.594;23.808;2023-11-19T15:12:07;95333.72;;;6.85;56.17
24160;BME280;62385;41.594;23.808;2023-11-19T15:14:45;95349.47;;;6.77;56.59
24160;BME280;62385;41.594;23.808;2023-11-19T15:17:11;95360.53;;;6.63;57.24
24160;BME280;62385;41.594;23.808;2023-11-19T15:19:37;95343.28;;;6.50;57.04
24160;BME280;62385;41.594;23.808;2023-11-19T15:22:03;95332.41;;;6.36;58.03
24160;BME280;62385;41.594;23.808;2023-11-19T15:24:31;95348.53;;;6.06;59.26
24160;BME280;62385;41.594;23.808;2023-11-19T15:26:57;95329.81;;;6.09;58.53
24160;BME280;62385;41.594;23.808;2023-11-19T15:29:22;95374.16;;;6.13;59.63
24160;BME280;62385;41.594;23.808;2023-11-19T15:31:48;95369.44;;;5.89;60.58
24160;BME280;62385;41.594;23.808;2023-11-19T15:34:20;95356.97;;;5.72;60.29
24160;BME280;62385;41.594;23.808;2023-11-19T15:44:17;95406.03;;;5.83;61.63
24160;BME280;62385;41.594;23.808;2023-11-19T15:46:44;95412.75;;;5.58;61.40
24160;BME280;62385;41.594;23.808;2023-11-19T15:52:38;95417.38;;;5.37;60.68
24160;BME280;62385;41.594;23.808;2023-11-19T16:02:26;95379.38;;;6.68;54.49
24160;BME280;62385;41.594;23.808;2023-11-19T16:04:52;95376.16;;;6.01;57.47
24160;BME280;62385;41.594;23.808;2023-11-19T16:07:21;95354.84;;;5.85;58.61
24160;BME280;62385;41.594;23.808;2023-11-19T16:09:47;95368.66;;;6.07;58.62
24160;BME280;62385;41.594;23.808;2023-11-19T16:12:14;95383.19;;;5.74;61.25
24160;BME280;62385;41.594;23.808;2023-11-19T16:14:40;95379.84;;;5.91;59.48
24160;BME280;62385;41.594;23.808;2023-11-19T16:17:06;95383.72;;;5.87;60.50
24160;BME280;62385;41.594;23.808;2023-11-19T16:19:32;95369.09;;;5.55;61.00
24160;BME280;62385;41.594;23.808;2023-11-19T16:22:00;95356.09;;;5.44;61.48
24160;BME280;62385;41.594;23.808;2023-11-19T16:24:37;95366.78;;;5.43;63.65
24160;BME280;62385;41.594;23.808;2023-11-19T16:27:03;95376.84;;;5.57;62.88
24160;BME280;62385;41.594;23.808;2023-11-19T16:29:29;95371.53;;;5.20;63.39
24160;BME280;62385;41.594;23.808;2023-11-19T16:31:55;95385.66;;;5.19;64.83
24160;BME280;62385;41.594;23.808;2023-11-19T16:34:21;95398.28;;;4.96;64.28
24160;BME280;62385;41.594;23.808;2023-11-19T16:36:56;95382.38;;;4.79;64.04
24160;BME280;62385;41.594;23.808;2023-11-19T16:39:31;95403.66;;;4.85;64.11
24160;BME280;62385;41.594;23.808;2023-11-19T16:41:57;95401.31;;;4.73;63.69
24160;BME280;62385;41.594;23.808;2023-11-19T16:51:25;95389.28;;;4.51;63.89
24160;BME280;62385;41.594;23.808;2023-11-19T16:53:53;95357.03;;;3.90;65.25
24160;BME280;62385;41.594;23.808;2023-11-19T16:56:19;95366.78;;;4.08;64.66
24160;BME280;62385;41.594;23.808;2023-11-19T16:58:45;95395.16;;;4.24;64.54
24160;BME280;62385;41.594;23.808;2023-11-19T17:01:12;95362.78;;;4.14;63.32
24160;BME280;62385;41.594;23.808;2023-11-19T17:03:42;95410.28;;;4.41;64.13
24160;BME280;62385;41.594;23.808;2023-11-19T17:12:56;95407.34;;;4.25;63.75
24160;BME280;62385;41.594;23.808;2023-11-19T17:23:03;95433.91;;;3.92;65.02
24160;BME280;62385;41.594;23.808;2023-11-19T17:25:30;95399.66;;;4.03;64.17
24160;BME280;62385;41.594;23.808;2023-11-19T17:28:39;95412.50;;;4.06;64.80
24160;BME280;62385;41.594;23.808;2023-11-19T17:31:06;95428.16;;;3.77;66.00
24160;BME280;62385;41.594;23.808;2023-11-19T17:33:32;95430.88;;;3.66;66.21